Nyala, Nevada Weather observations

Data are for observation ending at time listed.
 Day   Time    Ave.   Ave.  Ave.  Vector   Max.   Stn.    Total    Solar   Ave.  
  of    of     Air    Rel.  Wind   Wind    Wind   Baro.  Precip.   Rad.    Soil  
Year   Day     Temp.  Hum.  Speed  Dir.    Gust   Pres.                    Temp. 
2016   (PST)    F      %     mph   deg.    mph     mb.     in.     W/m2     F   
------------------------------------------------------------------------------
 274    0:00   56.8    52    1.7   147      5.3    856     0.00       0    69.5
 274    1:00   56.1    52    2.6    87      8.2    856     0.00       0    68.4
 274    2:00   52.9    60    1.7   220      4.8    856     0.00       0    67.5
 274    3:00   50.5    64    1.8   181      5.7    856     0.00       0    66.5
 274    4:00   48.6    68    1.2   172      6.0    856     0.00       0    65.6
 274    5:00   50.2    66    1.1   128      3.1    856     0.00       0    64.6
 274    6:00   47.3    69    1.2   234      4.6    857     0.00       1    63.8
 274    7:00   50.9    67    1.2   195      3.8    857     0.00      50    63.0
 274    8:00   61.4    45    0.6   280      2.5    857     0.00     137    62.6
 274    9:00   67.5    36    1.5    25      4.2    857     0.00     219    62.9
 274   10:00   69.1    35    3.1    53      6.8    857     0.00     215    63.7
 274   11:00   73.0    31    4.1    47      7.7    856     0.00     333    64.6
 274   12:00   77.6    26    3.3    52      7.9    856     0.00     358    66.0
 274   13:00   80.2    22    2.7    94      6.9    854     0.00     214    69.3
 274   14:00   80.5    21    2.9   114      9.5    853     0.00     181    72.8
 274   15:00   81.5    19    6.9   147     15.3    853     0.00     202    74.9
 274   16:00   82.4    18    6.6   133     17.5    852     0.00     185    75.4
 274   17:00   80.7    19    7.8   147     16.3    852     0.00      76    75.4
 274   18:00   74.7    24    7.7   161     14.9    852     0.00       4    75.6
 274   19:00   70.0    30    6.1   165     13.7    852     0.00       0    75.0
 274   20:00   69.7    30    7.4   154     17.4    852     0.00       0    73.8
 274   21:00   72.2    26    9.3   149     18.6    852     0.00       0    72.6
 274   22:00   68.8    33   10.5   178     18.3    852     0.00       0    71.8
 274   23:00   67.1    36    8.6   186     16.6    853     0.00       0    71.1

Return to Nyala, Nevada graphs page.


Western Regional Climate Center,wrcc@dri.edu